sensor_id;sensor_type;location;lat;lon;timestamp;P1;durP1;ratioP1;P2;durP2;ratioP2
2175;SDS011;1094;49.902;10.876;2023-02-08T00:00:36;35.70;;;32.67;;
2175;SDS011;1094;49.902;10.876;2023-02-08T00:03:02;36.03;;;33.03;;
2175;SDS011;1094;49.902;10.876;2023-02-08T00:05:28;32.58;;;29.77;;
2175;SDS011;1094;49.902;10.876;2023-02-08T00:07:54;34.40;;;31.50;;
2175;SDS011;1094;49.902;10.876;2023-02-08T00:10:20;34.35;;;31.25;;
2175;SDS011;1094;49.902;10.876;2023-02-08T00:12:46;35.57;;;32.30;;
2175;SDS011;1094;49.902;10.876;2023-02-08T00:15:12;37.65;;;34.10;;
2175;SDS011;1094;49.902;10.876;2023-02-08T00:17:39;35.50;;;32.20;;
2175;SDS011;1094;49.902;10.876;2023-02-08T00:20:05;35.90;;;32.30;;
2175;SDS011;1094;49.902;10.876;2023-02-08T00:22:31;36.55;;;33.38;;
2175;SDS011;1094;49.902;10.876;2023-02-08T00:24:57;35.77;;;32.63;;
2175;SDS011;1094;49.902;10.876;2023-02-08T00:27:23;37.70;;;33.90;;
2175;SDS011;1094;49.902;10.876;2023-02-08T00:29:49;35.50;;;32.10;;
2175;SDS011;1094;49.902;10.876;2023-02-08T00:32:14;36.67;;;33.00;;
2175;SDS011;1094;49.902;10.876;2023-02-08T00:34:40;37.27;;;34.10;;
2175;SDS011;1094;49.902;10.876;2023-02-08T00:37:06;34.30;;;31.53;;
2175;SDS011;1094;49.902;10.876;2023-02-08T00:39:32;36.13;;;32.53;;
2175;SDS011;1094;49.902;10.876;2023-02-08T00:41:58;37.70;;;34.60;;
2175;SDS011;1094;49.902;10.876;2023-02-08T00:44:24;35.35;;;32.33;;
2175;SDS011;1094;49.902;10.876;2023-02-08T00:46:50;35.60;;;32.30;;
2175;SDS011;1094;49.902;10.876;2023-02-08T00:49:17;34.42;;;31.50;;
2175;SDS011;1094;49.902;10.876;2023-02-08T00:51:43;35.63;;;32.60;;
2175;SDS011;1094;49.902;10.876;2023-02-08T00:54:16;35.87;;;32.67;;
2175;SDS011;1094;49.902;10.876;2023-02-08T00:56:42;34.33;;;31.23;;
2175;SDS011;1094;49.902;10.876;2023-02-08T00:59:08;35.90;;;32.87;;
2175;SDS011;1094;49.902;10.876;2023-02-08T01:01:34;36.35;;;32.88;;
2175;SDS011;1094;49.902;10.876;2023-02-08T01:04:00;36.97;;;33.33;;
2175;SDS011;1094;49.902;10.876;2023-02-08T01:06:26;36.03;;;32.63;;
2175;SDS011;1094;49.902;10.876;2023-02-08T01:08:52;35.97;;;32.67;;
2175;SDS011;1094;49.902;10.876;2023-02-08T01:11:20;35.13;;;32.13;;
2175;SDS011;1094;49.902;10.876;2023-02-08T01:13:47;35.08;;;31.67;;
2175;SDS011;1094;49.902;10.876;2023-02-08T01:16:14;37.90;;;33.80;;
2175;SDS011;1094;49.902;10.876;2023-02-08T01:18:41;37.47;;;33.88;;
2175;SDS011;1094;49.902;10.876;2023-02-08T01:21:11;37.08;;;33.72;;
2175;SDS011;1094;49.902;10.876;2023-02-08T01:23:38;35.33;;;31.92;;
2175;SDS011;1094;49.902;10.876;2023-02-08T01:26:04;36.55;;;32.15;;
2175;SDS011;1094;49.902;10.876;2023-02-08T01:28:31;38.22;;;34.83;;
2175;SDS011;1094;49.902;10.876;2023-02-08T01:30:57;35.83;;;32.33;;
2175;SDS011;1094;49.902;10.876;2023-02-08T01:33:23;37.13;;;33.63;;
2175;SDS011;1094;49.902;10.876;2023-02-08T01:35:50;37.13;;;33.53;;
2175;SDS011;1094;49.902;10.876;2023-02-08T01:38:16;35.25;;;32.00;;
2175;SDS011;1094;49.902;10.876;2023-02-08T01:40:42;36.43;;;33.23;;
2175;SDS011;1094;49.902;10.876;2023-02-08T01:43:30;34.25;;;31.10;;
2175;SDS011;1094;49.902;10.876;2023-02-08T01:45:55;34.65;;;31.35;;
2175;SDS011;1094;49.902;10.876;2023-02-08T01:48:25;36.27;;;32.47;;
2175;SDS011;1094;49.902;10.876;2023-02-08T01:50:53;36.20;;;32.95;;
2175;SDS011;1094;49.902;10.876;2023-02-08T01:53:20;36.38;;;33.15;;
2175;SDS011;1094;49.902;10.876;2023-02-08T01:55:47;36.55;;;33.25;;
2175;SDS011;1094;49.902;10.876;2023-02-08T01:58:14;35.72;;;32.45;;
2175;SDS011;1094;49.902;10.876;2023-02-08T02:00:42;36.13;;;32.67;;
2175;SDS011;1094;49.902;10.876;2023-02-08T02:03:08;34.23;;;30.97;;
2175;SDS011;1094;49.902;10.876;2023-02-08T02:05:37;36.78;;;33.22;;
2175;SDS011;1094;49.902;10.876;2023-02-08T02:08:03;36.60;;;32.92;;
2175;SDS011;1094;49.902;10.876;2023-02-08T02:10:31;35.92;;;32.78;;
2175;SDS011;1094;49.902;10.876;2023-02-08T02:13:01;34.00;;;31.02;;
2175;SDS011;1094;49.902;10.876;2023-02-08T02:15:27;34.33;;;31.50;;
2175;SDS011;1094;49.902;10.876;2023-02-08T02:17:53;37.43;;;34.07;;
2175;SDS011;1094;49.902;10.876;2023-02-08T02:22:56;37.33;;;33.67;;
2175;SDS011;1094;49.902;10.876;2023-02-08T02:25:41;34.33;;;31.10;;
2175;SDS011;1094;49.902;10.876;2023-02-08T02:28:20;36.00;;;32.47;;
2175;SDS011;1094;49.902;10.876;2023-02-08T02:38:13;39.85;;;35.78;;
2175;SDS011;1094;49.902;10.876;2023-02-08T02:40:56;36.42;;;32.90;;
2175;SDS011;1094;49.902;10.876;2023-02-08T02:48:38;37.97;;;34.50;;
2175;SDS011;1094;49.902;10.876;2023-02-08T02:51:13;36.67;;;32.88;;
2175;SDS011;1094;49.902;10.876;2023-02-08T02:53:48;37.42;;;33.75;;
2175;SDS011;1094;49.902;10.876;2023-02-08T02:56:20;36.60;;;33.00;;
2175;SDS011;1094;49.902;10.876;2023-02-08T02:58:47;34.65;;;31.65;;
2175;SDS011;1094;49.902;10.876;2023-02-08T03:01:13;35.60;;;32.28;;
2175;SDS011;1094;49.902;10.876;2023-02-08T03:03:50;39.72;;;35.55;;
2175;SDS011;1094;49.902;10.876;2023-02-08T03:06:18;39.90;;;36.13;;
2175;SDS011;1094;49.902;10.876;2023-02-08T03:08:56;36.33;;;32.83;;
2175;SDS011;1094;49.902;10.876;2023-02-08T03:11:27;38.22;;;34.42;;
2175;SDS011;1094;49.902;10.876;2023-02-08T03:16:25;35.13;;;31.63;;
2175;SDS011;1094;49.902;10.876;2023-02-08T03:19:03;36.05;;;32.22;;
2175;SDS011;1094;49.902;10.876;2023-02-08T03:21:49;35.70;;;31.90;;
2175;SDS011;1094;49.902;10.876;2023-02-08T03:26:59;32.85;;;29.65;;
2175;SDS011;1094;49.902;10.876;2023-02-08T03:32:03;35.05;;;31.75;;
2175;SDS011;1094;49.902;10.876;2023-02-08T03:34:37;35.67;;;31.95;;
2175;SDS011;1094;49.902;10.876;2023-02-08T03:37:08;36.40;;;32.80;;
2175;SDS011;1094;49.902;10.876;2023-02-08T03:39:35;34.45;;;31.65;;
2175;SDS011;1094;49.902;10.876;2023-02-08T03:42:03;34.90;;;31.60;;
2175;SDS011;1094;49.902;10.876;2023-02-08T03:44:31;35.42;;;32.13;;
2175;SDS011;1094;49.902;10.876;2023-02-08T03:47:12;35.97;;;32.90;;
2175;SDS011;1094;49.902;10.876;2023-02-08T03:49:39;34.63;;;31.73;;
2175;SDS011;1094;49.902;10.876;2023-02-08T03:52:07;35.67;;;32.72;;
2175;SDS011;1094;49.902;10.876;2023-02-08T03:54:34;35.47;;;32.08;;
2175;SDS011;1094;49.902;10.876;2023-02-08T03:59:31;34.28;;;31.13;;
2175;SDS011;1094;49.902;10.876;2023-02-08T04:02:00;33.67;;;30.67;;
2175;SDS011;1094;49.902;10.876;2023-02-08T04:04:27;34.67;;;31.40;;
2175;SDS011;1094;49.902;10.876;2023-02-08T04:06:54;34.33;;;31.02;;
2175;SDS011;1094;49.902;10.876;2023-02-08T04:09:20;33.97;;;30.67;;
2175;SDS011;1094;49.902;10.876;2023-02-08T04:11:46;35.17;;;31.87;;
2175;SDS011;1094;49.902;10.876;2023-02-08T04:14:12;35.80;;;32.77;;
2175;SDS011;1094;49.902;10.876;2023-02-08T04:16:38;34.50;;;31.73;;
2175;SDS011;1094;49.902;10.876;2023-02-08T04:19:04;36.77;;;33.17;;
2175;SDS011;1094;49.902;10.876;2023-02-08T04:21:29;33.53;;;30.77;;
2175;SDS011;1094;49.902;10.876;2023-02-08T04:23:55;35.13;;;32.03;;
2175;SDS011;1094;49.902;10.876;2023-02-08T04:26:21;33.57;;;30.87;;
2175;SDS011;1094;49.902;10.876;2023-02-08T04:28:47;37.07;;;33.70;;
2175;SDS011;1094;49.902;10.876;2023-02-08T04:31:13;35.63;;;32.75;;
2175;SDS011;1094;49.902;10.876;2023-02-08T04:33:39;37.10;;;33.50;;
2175;SDS011;1094;49.902;10.876;2023-02-08T04:36:05;36.27;;;32.80;;
2175;SDS011;1094;49.902;10.876;2023-02-08T04:38:31;37.25;;;33.90;;
2175;SDS011;1094;49.902;10.876;2023-02-08T04:40:57;35.60;;;32.30;;
2175;SDS011;1094;49.902;10.876;2023-02-08T04:43:23;37.30;;;33.67;;
2175;SDS011;1094;49.902;10.876;2023-02-08T04:45:49;38.77;;;34.87;;
2175;SDS011;1094;49.902;10.876;2023-02-08T04:48:16;35.53;;;32.47;;
2175;SDS011;1094;49.902;10.876;2023-02-08T04:50:42;35.25;;;31.75;;
2175;SDS011;1094;49.902;10.876;2023-02-08T04:53:07;36.43;;;32.47;;
2175;SDS011;1094;49.902;10.876;2023-02-08T04:55:33;34.20;;;31.30;;
2175;SDS011;1094;49.902;10.876;2023-02-08T04:57:59;35.13;;;31.87;;
2175;SDS011;1094;49.902;10.876;2023-02-08T05:00:26;45.03;;;31.58;;
2175;SDS011;1094;49.902;10.876;2023-02-08T05:02:55;35.70;;;32.42;;
2175;SDS011;1094;49.902;10.876;2023-02-08T05:05:21;37.22;;;33.50;;
2175;SDS011;1094;49.902;10.876;2023-02-08T05:07:47;36.50;;;32.65;;
2175;SDS011;1094;49.902;10.876;2023-02-08T05:10:13;34.97;;;31.80;;
2175;SDS011;1094;49.902;10.876;2023-02-08T05:12:39;33.80;;;30.50;;
2175;SDS011;1094;49.902;10.876;2023-02-08T05:15:05;35.77;;;32.40;;
2175;SDS011;1094;49.902;10.876;2023-02-08T05:17:31;38.05;;;34.30;;
2175;SDS011;1094;49.902;10.876;2023-02-08T05:19:57;34.90;;;31.50;;
2175;SDS011;1094;49.902;10.876;2023-02-08T05:22:23;38.80;;;33.70;;
2175;SDS011;1094;49.902;10.876;2023-02-08T05:24:49;37.50;;;33.80;;
2175;SDS011;1094;49.902;10.876;2023-02-08T05:27:15;36.33;;;32.85;;
2175;SDS011;1094;49.902;10.876;2023-02-08T05:29:41;33.90;;;31.03;;
2175;SDS011;1094;49.902;10.876;2023-02-08T05:32:07;35.10;;;32.10;;
2175;SDS011;1094;49.902;10.876;2023-02-08T05:34:33;36.70;;;32.90;;
2175;SDS011;1094;49.902;10.876;2023-02-08T05:36:59;34.13;;;30.73;;
2175;SDS011;1094;49.902;10.876;2023-02-08T05:39:24;35.83;;;32.50;;
2175;SDS011;1094;49.902;10.876;2023-02-08T05:41:50;35.10;;;31.83;;
2175;SDS011;1094;49.902;10.876;2023-02-08T05:44:16;37.90;;;34.43;;
2175;SDS011;1094;49.902;10.876;2023-02-08T05:46:42;37.38;;;33.85;;
2175;SDS011;1094;49.902;10.876;2023-02-08T05:49:08;35.60;;;32.40;;
2175;SDS011;1094;49.902;10.876;2023-02-08T05:51:34;34.97;;;31.87;;
2175;SDS011;1094;49.902;10.876;2023-02-08T05:54:00;35.70;;;32.35;;
2175;SDS011;1094;49.902;10.876;2023-02-08T05:56:26;35.17;;;31.45;;
2175;SDS011;1094;49.902;10.876;2023-02-08T05:58:52;37.23;;;33.83;;
2175;SDS011;1094;49.902;10.876;2023-02-08T06:01:19;36.55;;;32.97;;
2175;SDS011;1094;49.902;10.876;2023-02-08T06:03:45;36.90;;;33.30;;
2175;SDS011;1094;49.902;10.876;2023-02-08T06:06:11;39.00;;;35.10;;
2175;SDS011;1094;49.902;10.876;2023-02-08T06:08:38;37.73;;;33.27;;
2175;SDS011;1094;49.902;10.876;2023-02-08T06:11:04;41.22;;;36.83;;
2175;SDS011;1094;49.902;10.876;2023-02-08T06:13:30;38.55;;;34.40;;
2175;SDS011;1094;49.902;10.876;2023-02-08T06:15:56;40.10;;;36.25;;
2175;SDS011;1094;49.902;10.876;2023-02-08T06:18:22;40.53;;;36.50;;
2175;SDS011;1094;49.902;10.876;2023-02-08T06:20:51;39.03;;;35.53;;
2175;SDS011;1094;49.902;10.876;2023-02-08T06:23:17;38.47;;;34.45;;
2175;SDS011;1094;49.902;10.876;2023-02-08T06:25:43;39.00;;;34.90;;
2175;SDS011;1094;49.902;10.876;2023-02-08T06:28:09;39.77;;;35.77;;
2175;SDS011;1094;49.902;10.876;2023-02-08T06:30:35;36.63;;;33.37;;
2175;SDS011;1094;49.902;10.876;2023-02-08T06:33:02;36.00;;;32.35;;
2175;SDS011;1094;49.902;10.876;2023-02-08T06:35:27;37.58;;;34.05;;
2175;SDS011;1094;49.902;10.876;2023-02-08T06:37:53;38.10;;;34.83;;
2175;SDS011;1094;49.902;10.876;2023-02-08T06:40:19;37.33;;;33.67;;
2175;SDS011;1094;49.902;10.876;2023-02-08T06:42:46;39.33;;;35.10;;
2175;SDS011;1094;49.902;10.876;2023-02-08T06:45:12;37.28;;;34.08;;
2175;SDS011;1094;49.902;10.876;2023-02-08T06:47:38;37.08;;;33.33;;
2175;SDS011;1094;49.902;10.876;2023-02-08T06:50:04;41.13;;;35.73;;
2175;SDS011;1094;49.902;10.876;2023-02-08T06:52:30;37.67;;;33.95;;
2175;SDS011;1094;49.902;10.876;2023-02-08T06:54:56;35.70;;;32.60;;
2175;SDS011;1094;49.902;10.876;2023-02-08T06:57:22;38.50;;;34.70;;
2175;SDS011;1094;49.902;10.876;2023-02-08T06:59:48;34.85;;;31.67;;
2175;SDS011;1094;49.902;10.876;2023-02-08T07:02:15;37.65;;;34.10;;
2175;SDS011;1094;49.902;10.876;2023-02-08T07:04:42;36.35;;;32.70;;
2175;SDS011;1094;49.902;10.876;2023-02-08T07:07:10;38.10;;;34.58;;
2175;SDS011;1094;49.902;10.876;2023-02-08T07:09:36;37.08;;;33.47;;
2175;SDS011;1094;49.902;10.876;2023-02-08T07:12:02;43.13;;;34.83;;
2175;SDS011;1094;49.902;10.876;2023-02-08T07:14:29;40.90;;;33.15;;
2175;SDS011;1094;49.902;10.876;2023-02-08T07:16:55;37.75;;;34.00;;
2175;SDS011;1094;49.902;10.876;2023-02-08T07:19:21;38.43;;;34.60;;
2175;SDS011;1094;49.902;10.876;2023-02-08T07:21:47;38.53;;;34.60;;
2175;SDS011;1094;49.902;10.876;2023-02-08T07:24:13;46.10;;;35.00;;
2175;SDS011;1094;49.902;10.876;2023-02-08T07:26:39;46.53;;;36.30;;
2175;SDS011;1094;49.902;10.876;2023-02-08T07:29:05;39.08;;;35.33;;
2175;SDS011;1094;49.902;10.876;2023-02-08T07:31:31;39.70;;;35.63;;
2175;SDS011;1094;49.902;10.876;2023-02-08T07:33:57;39.50;;;35.40;;
2175;SDS011;1094;49.902;10.876;2023-02-08T07:36:23;39.13;;;35.05;;
2175;SDS011;1094;49.902;10.876;2023-02-08T07:38:49;41.70;;;37.10;;
2175;SDS011;1094;49.902;10.876;2023-02-08T07:41:15;41.57;;;36.27;;
2175;SDS011;1094;49.902;10.876;2023-02-08T07:43:41;38.90;;;34.80;;
2175;SDS011;1094;49.902;10.876;2023-02-08T07:46:08;42.17;;;35.10;;
2175;SDS011;1094;49.902;10.876;2023-02-08T07:48:35;37.45;;;33.70;;
2175;SDS011;1094;49.902;10.876;2023-02-08T07:51:01;38.35;;;34.35;;
2175;SDS011;1094;49.902;10.876;2023-02-08T07:53:27;37.20;;;33.37;;
2175;SDS011;1094;49.902;10.876;2023-02-08T07:55:53;38.20;;;34.08;;
2175;SDS011;1094;49.902;10.876;2023-02-08T07:58:19;39.90;;;35.77;;
2175;SDS011;1094;49.902;10.876;2023-02-08T08:00:45;38.83;;;34.87;;
2175;SDS011;1094;49.902;10.876;2023-02-08T08:03:11;40.20;;;35.50;;
2175;SDS011;1094;49.902;10.876;2023-02-08T08:05:38;38.40;;;34.70;;
2175;SDS011;1094;49.902;10.876;2023-02-08T08:08:05;38.58;;;34.83;;
2175;SDS011;1094;49.902;10.876;2023-02-08T08:10:31;39.13;;;34.93;;
2175;SDS011;1094;49.902;10.876;2023-02-08T08:12:56;38.50;;;34.80;;
2175;SDS011;1094;49.902;10.876;2023-02-08T08:15:22;38.63;;;34.77;;
2175;SDS011;1094;49.902;10.876;2023-02-08T08:17:48;37.47;;;34.37;;
2175;SDS011;1094;49.902;10.876;2023-02-08T08:20:14;40.13;;;34.60;;
2175;SDS011;1094;49.902;10.876;2023-02-08T08:22:40;37.83;;;34.28;;
2175;SDS011;1094;49.902;10.876;2023-02-08T08:25:06;38.87;;;35.23;;
2175;SDS011;1094;49.902;10.876;2023-02-08T08:27:32;38.17;;;34.28;;
2175;SDS011;1094;49.902;10.876;2023-02-08T08:29:59;37.53;;;33.95;;
2175;SDS011;1094;49.902;10.876;2023-02-08T08:32:25;35.55;;;32.47;;
2175;SDS011;1094;49.902;10.876;2023-02-08T08:34:51;37.33;;;33.80;;
2175;SDS011;1094;49.902;10.876;2023-02-08T08:37:17;33.97;;;30.70;;
2175;SDS011;1094;49.902;10.876;2023-02-08T08:39:43;34.33;;;31.33;;
2175;SDS011;1094;49.902;10.876;2023-02-08T08:42:09;34.93;;;31.60;;
2175;SDS011;1094;49.902;10.876;2023-02-08T08:44:35;34.70;;;31.70;;
2175;SDS011;1094;49.902;10.876;2023-02-08T08:47:01;35.80;;;32.70;;
2175;SDS011;1094;49.902;10.876;2023-02-08T08:49:27;34.23;;;31.17;;
2175;SDS011;1094;49.902;10.876;2023-02-08T08:51:53;35.47;;;32.33;;
2175;SDS011;1094;49.902;10.876;2023-02-08T08:54:20;36.30;;;32.70;;
2175;SDS011;1094;49.902;10.876;2023-02-08T08:56:46;34.07;;;31.23;;
2175;SDS011;1094;49.902;10.876;2023-02-08T08:59:12;34.03;;;31.03;;
2175;SDS011;1094;49.902;10.876;2023-02-08T09:01:38;34.07;;;30.90;;
2175;SDS011;1094;49.902;10.876;2023-02-08T09:04:06;34.17;;;31.30;;
2175;SDS011;1094;49.902;10.876;2023-02-08T09:06:32;36.33;;;32.63;;
2175;SDS011;1094;49.902;10.876;2023-02-08T09:08:58;34.77;;;31.70;;
2175;SDS011;1094;49.902;10.876;2023-02-08T09:11:24;36.13;;;32.63;;
2175;SDS011;1094;49.902;10.876;2023-02-08T09:13:50;37.93;;;34.13;;
2175;SDS011;1094;49.902;10.876;2023-02-08T09:16:19;34.93;;;31.70;;
2175;SDS011;1094;49.902;10.876;2023-02-08T09:18:45;34.40;;;31.30;;
2175;SDS011;1094;49.902;10.876;2023-02-08T09:21:12;35.83;;;32.43;;
2175;SDS011;1094;49.902;10.876;2023-02-08T09:23:39;37.57;;;34.30;;
2175;SDS011;1094;49.902;10.876;2023-02-08T09:26:05;36.87;;;33.57;;
2175;SDS011;1094;49.902;10.876;2023-02-08T09:28:31;35.17;;;32.07;;
2175;SDS011;1094;49.902;10.876;2023-02-08T09:30:58;36.77;;;33.57;;
2175;SDS011;1094;49.902;10.876;2023-02-08T09:33:25;36.80;;;33.80;;
2175;SDS011;1094;49.902;10.876;2023-02-08T09:35:51;37.03;;;33.90;;
2175;SDS011;1094;49.902;10.876;2023-02-08T09:38:17;35.17;;;32.33;;
2175;SDS011;1094;49.902;10.876;2023-02-08T09:40:48;35.53;;;32.63;;
2175;SDS011;1094;49.902;10.876;2023-02-08T09:43:21;36.53;;;33.40;;
2175;SDS011;1094;49.902;10.876;2023-02-08T09:46:04;35.70;;;32.80;;
2175;SDS011;1094;49.902;10.876;2023-02-08T09:48:33;37.20;;;33.90;;
2175;SDS011;1094;49.902;10.876;2023-02-08T09:51:12;36.03;;;32.73;;
2175;SDS011;1094;49.902;10.876;2023-02-08T09:53:43;35.20;;;32.40;;
2175;SDS011;1094;49.902;10.876;2023-02-08T09:56:12;34.87;;;31.93;;
2175;SDS011;1094;49.902;10.876;2023-02-08T09:58:40;35.53;;;32.40;;
2175;SDS011;1094;49.902;10.876;2023-02-08T10:04:11;34.00;;;31.20;;
2175;SDS011;1094;49.902;10.876;2023-02-08T10:06:38;34.03;;;30.93;;
2175;SDS011;1094;49.902;10.876;2023-02-08T10:09:04;33.50;;;30.70;;
2175;SDS011;1094;49.902;10.876;2023-02-08T10:16:51;33.53;;;30.60;;
2175;SDS011;1094;49.902;10.876;2023-02-08T10:27:10;34.17;;;31.17;;
2175;SDS011;1094;49.902;10.876;2023-02-08T10:32:27;32.00;;;29.30;;
2175;SDS011;1094;49.902;10.876;2023-02-08T10:35:45;32.77;;;30.07;;
2175;SDS011;1094;49.902;10.876;2023-02-08T10:37:45;33.10;;;30.17;;
2175;SDS011;1094;49.902;10.876;2023-02-08T10:40:33;32.07;;;29.40;;
2175;SDS011;1094;49.902;10.876;2023-02-08T10:43:02;31.90;;;29.33;;
2175;SDS011;1094;49.902;10.876;2023-02-08T10:48:17;33.50;;;30.70;;
2175;SDS011;1094;49.902;10.876;2023-02-08T10:50:46;33.07;;;30.33;;
2175;SDS011;1094;49.902;10.876;2023-02-08T10:53:16;32.13;;;29.47;;
2175;SDS011;1094;49.902;10.876;2023-02-08T10:55:46;31.60;;;29.20;;
2175;SDS011;1094;49.902;10.876;2023-02-08T10:58:17;30.97;;;28.47;;
2175;SDS011;1094;49.902;10.876;2023-02-08T11:00:43;32.40;;;29.53;;
2175;SDS011;1094;49.902;10.876;2023-02-08T11:03:13;29.80;;;27.40;;
2175;SDS011;1094;49.902;10.876;2023-02-08T11:05:39;27.60;;;25.57;;
2175;SDS011;1094;49.902;10.876;2023-02-08T11:08:13;28.50;;;26.40;;
2175;SDS011;1094;49.902;10.876;2023-02-08T11:11:24;28.53;;;26.40;;
2175;SDS011;1094;49.902;10.876;2023-02-08T11:13:38;27.30;;;25.23;;
2175;SDS011;1094;49.902;10.876;2023-02-08T11:16:05;29.43;;;27.00;;
2175;SDS011;1094;49.902;10.876;2023-02-08T11:18:36;28.70;;;26.33;;
2175;SDS011;1094;49.902;10.876;2023-02-08T11:23:48;27.60;;;25.27;;
2175;SDS011;1094;49.902;10.876;2023-02-08T11:26:23;27.30;;;25.20;;
2175;SDS011;1094;49.902;10.876;2023-02-08T11:31:34;26.73;;;24.80;;
2175;SDS011;1094;49.902;10.876;2023-02-08T11:34:07;28.17;;;25.67;;
2175;SDS011;1094;49.902;10.876;2023-02-08T11:36:34;26.70;;;24.80;;
2175;SDS011;1094;49.902;10.876;2023-02-08T11:39:01;28.20;;;25.90;;
2175;SDS011;1094;49.902;10.876;2023-02-08T11:41:28;27.87;;;25.50;;
2175;SDS011;1094;49.902;10.876;2023-02-08T11:43:56;26.43;;;24.50;;
2175;SDS011;1094;49.902;10.876;2023-02-08T11:46:23;25.60;;;23.60;;
2175;SDS011;1094;49.902;10.876;2023-02-08T11:48:50;26.10;;;24.20;;
2175;SDS011;1094;49.902;10.876;2023-02-08T11:51:27;26.53;;;24.53;;
2175;SDS011;1094;49.902;10.876;2023-02-08T11:53:53;26.67;;;24.50;;
2175;SDS011;1094;49.902;10.876;2023-02-08T11:56:24;25.73;;;23.80;;
2175;SDS011;1094;49.902;10.876;2023-02-08T12:01:20;27.03;;;24.93;;
2175;SDS011;1094;49.902;10.876;2023-02-08T12:03:47;26.40;;;24.40;;
2175;SDS011;1094;49.902;10.876;2023-02-08T12:06:24;26.20;;;24.30;;
2175;SDS011;1094;49.902;10.876;2023-02-08T12:11:43;26.60;;;24.50;;
2175;SDS011;1094;49.902;10.876;2023-02-08T12:19:18;26.47;;;24.57;;
2175;SDS011;1094;49.902;10.876;2023-02-08T12:21:51;27.00;;;24.90;;
2175;SDS011;1094;49.902;10.876;2023-02-08T12:24:24;26.47;;;24.57;;
2175;SDS011;1094;49.902;10.876;2023-02-08T12:36:59;26.40;;;24.40;;
2175;SDS011;1094;49.902;10.876;2023-02-08T12:40:06;26.70;;;24.60;;
2175;SDS011;1094;49.902;10.876;2023-02-08T12:42:56;26.30;;;24.40;;
2175;SDS011;1094;49.902;10.876;2023-02-08T12:50:50;26.60;;;24.50;;
2175;SDS011;1094;49.902;10.876;2023-02-08T12:55:46;27.87;;;25.93;;
2175;SDS011;1094;49.902;10.876;2023-02-08T12:58:27;26.90;;;24.87;;
2175;SDS011;1094;49.902;10.876;2023-02-08T13:00:55;27.70;;;25.50;;
2175;SDS011;1094;49.902;10.876;2023-02-08T13:05:51;27.20;;;25.07;;
2175;SDS011;1094;49.902;10.876;2023-02-08T13:11:03;27.40;;;25.10;;
2175;SDS011;1094;49.902;10.876;2023-02-08T13:13:34;26.87;;;24.73;;
2175;SDS011;1094;49.902;10.876;2023-02-08T13:16:02;26.73;;;24.73;;
2175;SDS011;1094;49.902;10.876;2023-02-08T13:18:34;26.30;;;24.37;;
2175;SDS011;1094;49.902;10.876;2023-02-08T13:21:02;26.00;;;24.10;;
2175;SDS011;1094;49.902;10.876;2023-02-08T13:23:42;26.90;;;25.00;;
2175;SDS011;1094;49.902;10.876;2023-02-08T13:26:14;28.33;;;26.00;;
2175;SDS011;1094;49.902;10.876;2023-02-08T13:28:48;28.20;;;25.90;;
2175;SDS011;1094;49.902;10.876;2023-02-08T13:31:16;29.00;;;26.87;;
2175;SDS011;1094;49.902;10.876;2023-02-08T13:33:48;27.70;;;25.70;;
2175;SDS011;1094;49.902;10.876;2023-02-08T13:36:25;31.10;;;28.30;;
2175;SDS011;1094;49.902;10.876;2023-02-08T13:38:52;28.70;;;26.40;;
2175;SDS011;1094;49.902;10.876;2023-02-08T13:41:19;28.43;;;26.20;;
2175;SDS011;1094;49.902;10.876;2023-02-08T13:43:48;29.53;;;27.07;;
2175;SDS011;1094;49.902;10.876;2023-02-08T13:46:15;29.83;;;27.13;;
2175;SDS011;1094;49.902;10.876;2023-02-08T13:48:43;28.10;;;25.77;;
2175;SDS011;1094;49.902;10.876;2023-02-08T13:51:42;27.50;;;25.50;;
2175;SDS011;1094;49.902;10.876;2023-02-08T13:56:48;30.97;;;28.37;;
2175;SDS011;1094;49.902;10.876;2023-02-08T13:59:27;29.57;;;27.10;;
2175;SDS011;1094;49.902;10.876;2023-02-08T14:04:43;29.97;;;27.37;;
2175;SDS011;1094;49.902;10.876;2023-02-08T14:12:25;30.37;;;27.77;;
2175;SDS011;1094;49.902;10.876;2023-02-08T14:17:30;30.63;;;28.30;;
2175;SDS011;1094;49.902;10.876;2023-02-08T14:19:58;31.10;;;28.10;;
2175;SDS011;1094;49.902;10.876;2023-02-08T14:22:26;32.80;;;30.30;;
2175;SDS011;1094;49.902;10.876;2023-02-08T14:25:07;32.10;;;29.23;;
2175;SDS011;1094;49.902;10.876;2023-02-08T14:28:02;29.83;;;27.53;;
2175;SDS011;1094;49.902;10.876;2023-02-08T14:33:07;31.53;;;28.40;;
2175;SDS011;1094;49.902;10.876;2023-02-08T14:35:34;29.93;;;27.40;;
2175;SDS011;1094;49.902;10.876;2023-02-08T14:40:56;29.90;;;27.50;;
2175;SDS011;1094;49.902;10.876;2023-02-08T14:43:26;32.33;;;29.50;;
2175;SDS011;1094;49.902;10.876;2023-02-08T14:45:53;32.57;;;29.60;;
2175;SDS011;1094;49.902;10.876;2023-02-08T14:48:26;30.33;;;27.63;;
2175;SDS011;1094;49.902;10.876;2023-02-08T14:51:12;29.60;;;27.27;;
2175;SDS011;1094;49.902;10.876;2023-02-08T14:58:34;29.57;;;27.27;;
2175;SDS011;1094;49.902;10.876;2023-02-08T15:01:02;27.80;;;25.80;;
2175;SDS011;1094;49.902;10.876;2023-02-08T15:03:31;31.60;;;28.87;;
2175;SDS011;1094;49.902;10.876;2023-02-08T15:08:36;30.57;;;28.27;;
2175;SDS011;1094;49.902;10.876;2023-02-08T15:11:02;30.10;;;27.50;;
2175;SDS011;1094;49.902;10.876;2023-02-08T15:13:28;30.30;;;27.90;;
2175;SDS011;1094;49.902;10.876;2023-02-08T15:15:55;29.93;;;27.40;;
2175;SDS011;1094;49.902;10.876;2023-02-08T15:18:22;29.25;;;26.90;;
2175;SDS011;1094;49.902;10.876;2023-02-08T15:23:22;31.00;;;28.30;;
2175;SDS011;1094;49.902;10.876;2023-02-08T15:25:58;29.02;;;26.50;;
2175;SDS011;1094;49.902;10.876;2023-02-08T15:28:26;28.83;;;26.70;;
2175;SDS011;1094;49.902;10.876;2023-02-08T15:31:14;30.75;;;28.05;;
2175;SDS011;1094;49.902;10.876;2023-02-08T15:33:39;27.40;;;25.47;;
2175;SDS011;1094;49.902;10.876;2023-02-08T15:38:54;31.50;;;28.92;;
2175;SDS011;1094;49.902;10.876;2023-02-08T15:41:28;33.75;;;28.50;;
2175;SDS011;1094;49.902;10.876;2023-02-08T15:44:01;28.55;;;26.25;;
2175;SDS011;1094;49.902;10.876;2023-02-08T15:46:27;30.67;;;27.88;;
2175;SDS011;1094;49.902;10.876;2023-02-08T15:48:54;31.67;;;28.98;;
2175;SDS011;1094;49.902;10.876;2023-02-08T15:51:21;30.17;;;27.48;;
2175;SDS011;1094;49.902;10.876;2023-02-08T15:53:49;32.45;;;29.65;;
2175;SDS011;1094;49.902;10.876;2023-02-08T15:56:17;29.95;;;27.58;;
2175;SDS011;1094;49.902;10.876;2023-02-08T15:58:45;31.67;;;28.92;;
2175;SDS011;1094;49.902;10.876;2023-02-08T16:01:17;30.65;;;27.65;;
2175;SDS011;1094;49.902;10.876;2023-02-08T16:03:50;28.77;;;26.67;;
2175;SDS011;1094;49.902;10.876;2023-02-08T16:06:25;30.38;;;27.67;;
2175;SDS011;1094;49.902;10.876;2023-02-08T16:08:52;29.80;;;27.33;;
2175;SDS011;1094;49.902;10.876;2023-02-08T16:11:20;29.77;;;27.58;;
2175;SDS011;1094;49.902;10.876;2023-02-08T16:13:47;29.92;;;27.33;;
2175;SDS011;1094;49.902;10.876;2023-02-08T16:16:19;30.45;;;28.05;;
2175;SDS011;1094;49.902;10.876;2023-02-08T16:18:55;29.70;;;27.20;;
2175;SDS011;1094;49.902;10.876;2023-02-08T16:23:52;31.23;;;28.40;;
2175;SDS011;1094;49.902;10.876;2023-02-08T16:26:28;29.63;;;27.05;;
2175;SDS011;1094;49.902;10.876;2023-02-08T16:29:05;31.17;;;28.55;;
2175;SDS011;1094;49.902;10.876;2023-02-08T16:31:33;30.70;;;28.13;;
2175;SDS011;1094;49.902;10.876;2023-02-08T16:34:06;31.17;;;28.42;;
2175;SDS011;1094;49.902;10.876;2023-02-08T16:36:34;31.58;;;28.85;;
2175;SDS011;1094;49.902;10.876;2023-02-08T16:42:18;28.88;;;26.58;;
2175;SDS011;1094;49.902;10.876;2023-02-08T16:44:34;31.23;;;28.48;;